createdAt,value
2018-07-03T00:00:29.136Z,41.00
2018-07-03T00:02:56.942Z,41.40
2018-07-03T00:05:24.562Z,41.10
2018-07-03T00:07:52.719Z,41.10
2018-07-03T00:10:20.412Z,41.00
2018-07-03T00:15:15.964Z,41.20
2018-07-03T00:17:43.639Z,41.50
2018-07-03T00:20:11.251Z,42.20
2018-07-03T00:22:39.043Z,42.80
2018-07-03T00:25:06.688Z,43.10
2018-07-03T00:27:34.264Z,43.10
2018-07-03T00:30:01.842Z,43.40
2018-07-03T00:32:29.419Z,43.20
2018-07-03T00:34:57.060Z,43.90
2018-07-03T00:37:24.743Z,43.80
2018-07-03T00:39:52.461Z,44.30
2018-07-03T00:42:20.315Z,44.20
2018-07-03T00:44:47.903Z,44.80
2018-07-03T00:47:15.467Z,45.20
2018-07-03T00:49:43.021Z,45.50
2018-07-03T00:52:10.548Z,45.60
2018-07-03T00:54:38.143Z,45.60
2018-07-03T00:57:05.700Z,45.90
2018-07-03T00:59:33.315Z,46.50
2018-07-03T01:02:01.054Z,46.30
2018-07-03T01:04:28.664Z,46.40
2018-07-03T01:06:56.360Z,46.50
2018-07-03T01:09:24.004Z,47.30
2018-07-03T01:11:51.688Z,47.30
2018-07-03T01:14:19.411Z,47.70
2018-07-03T01:16:47.084Z,48.20
2018-07-03T01:19:14.872Z,48.60
2018-07-03T01:21:42.469Z,48.80
2018-07-03T01:24:10.003Z,48.70
2018-07-03T01:26:37.593Z,48.80
2018-07-03T01:31:33.595Z,49.90
2018-07-03T01:34:01.452Z,50.00
2018-07-03T01:36:29.129Z,50.80
2018-07-03T01:38:57.606Z,50.70
2018-07-03T01:41:25.294Z,51.00
2018-07-03T01:43:53.946Z,51.40
2018-07-03T01:46:21.492Z,51.30
2018-07-03T01:48:49.145Z,51.30
2018-07-03T01:51:16.696Z,51.80
2018-07-03T01:53:44.239Z,52.10
2018-07-03T01:56:11.831Z,52.30
2018-07-03T01:58:39.538Z,52.00
2018-07-03T02:01:07.558Z,52.20
2018-07-03T02:03:35.168Z,52.70
2018-07-03T02:06:03.103Z,53.30
2018-07-03T02:08:31.647Z,53.80
2018-07-03T02:10:59.226Z,53.60
2018-07-03T02:13:26.787Z,54.10
2018-07-03T02:15:54.324Z,54.30
2018-07-03T02:18:21.859Z,54.60
2018-07-03T02:20:49.572Z,55.30
2018-07-03T02:23:17.144Z,55.60
2018-07-03T02:25:44.693Z,55.70
2018-07-03T02:28:12.328Z,55.90
2018-07-03T02:30:39.916Z,56.70
2018-07-03T02:33:07.559Z,57.20
2018-07-03T02:35:35.138Z,58.00
2018-07-03T02:38:02.679Z,58.20
2018-07-03T02:40:30.239Z,59.00
2018-07-03T02:42:57.764Z,59.50
2018-07-03T02:45:25.362Z,60.20
2018-07-03T02:47:52.983Z,60.80
2018-07-03T02:50:20.812Z,61.00
2018-07-03T02:52:48.455Z,60.90
2018-07-03T02:55:16.303Z,61.70
2018-07-03T02:57:44.155Z,61.90
2018-07-03T03:00:11.811Z,62.00
2018-07-03T03:02:39.366Z,63.60
2018-07-03T03:05:07.038Z,63.90
2018-07-03T03:07:34.613Z,65.30
2018-07-03T03:10:02.256Z,65.10
2018-07-03T03:12:29.924Z,65.90
2018-07-03T03:14:57.596Z,66.20
2018-07-03T03:17:25.160Z,67.30
2018-07-03T03:19:52.712Z,68.10
2018-07-03T03:22:20.487Z,68.40
2018-07-03T03:24:48.475Z,68.60
2018-07-03T03:27:16.115Z,69.70
2018-07-03T03:29:43.635Z,69.80
2018-07-03T03:32:11.164Z,69.70
2018-07-03T03:34:38.784Z,69.30
2018-07-03T03:37:06.305Z,69.40
2018-07-03T03:39:33.948Z,70.40
2018-07-03T03:42:01.487Z,70.30
2018-07-03T03:44:29.070Z,70.80
2018-07-03T03:46:56.620Z,70.70
2018-07-03T03:49:24.471Z,71.40
2018-07-03T03:51:53.128Z,72.40
2018-07-03T03:54:20.736Z,71.90
2018-07-03T03:56:48.354Z,71.90
2018-07-03T03:59:16.016Z,72.00
2018-07-03T04:01:43.644Z,72.70
2018-07-03T04:04:11.275Z,73.10
2018-07-03T04:06:39.003Z,72.70
2018-07-03T04:09:08.814Z,71.40
2018-07-03T04:11:36.455Z,71.60
2018-07-03T04:14:04.309Z,70.90
2018-07-03T04:16:31.984Z,70.80
2018-07-03T04:19:00.333Z,71.10
2018-07-03T04:21:28.060Z,73.30
2018-07-03T04:23:55.868Z,72.70
2018-07-03T04:26:23.404Z,73.00
2018-07-03T04:28:51.330Z,74.00
2018-07-03T04:31:18.854Z,75.10
2018-07-03T04:36:13.898Z,75.90
2018-07-03T04:38:41.521Z,76.70
2018-07-03T04:41:09.076Z,76.70
2018-07-03T04:43:36.640Z,76.80
2018-07-03T04:48:32.499Z,76.90
2018-07-03T04:51:00.481Z,75.40
2018-07-03T04:53:28.434Z,76.30
2018-07-03T04:55:56.052Z,77.80
2018-07-03T04:58:23.613Z,77.30
2018-07-03T05:00:51.324Z,76.90
2018-07-03T05:03:19.018Z,76.20
2018-07-03T05:05:46.576Z,76.70
2018-07-03T05:08:14.201Z,75.20
2018-07-03T05:10:41.759Z,75.60
2018-07-03T05:13:09.376Z,76.60
2018-07-03T05:15:37.156Z,76.90
2018-07-03T05:18:04.918Z,76.90
2018-07-03T05:20:32.616Z,75.80
2018-07-03T05:23:00.351Z,71.20
2018-07-03T05:27:55.545Z,71.40
2018-07-03T05:30:23.088Z,71.70
2018-07-03T05:32:50.772Z,67.40
2018-07-03T05:35:18.465Z,65.00
2018-07-03T05:37:46.059Z,66.40
2018-07-03T05:40:13.713Z,60.90
2018-07-03T05:42:41.375Z,59.00
2018-07-03T05:45:09.125Z,59.70
2018-07-03T05:47:36.795Z,59.00
2018-07-03T05:50:04.975Z,57.50
2018-07-03T05:52:32.543Z,56.40
2018-07-03T05:55:00.077Z,57.50
2018-07-03T05:57:27.841Z,57.20
2018-07-03T05:59:55.549Z,56.80
2018-07-03T06:02:23.130Z,56.20
2018-07-03T06:04:50.839Z,55.10
2018-07-03T06:07:18.460Z,54.90
2018-07-03T06:09:46.367Z,57.60
2018-07-03T06:12:14.235Z,54.90
2018-07-03T06:14:42.223Z,55.10
2018-07-03T06:17:09.950Z,54.90
2018-07-03T06:19:37.544Z,55.20
2018-07-03T06:22:05.135Z,53.40
2018-07-03T06:27:01.277Z,53.60
2018-07-03T06:29:28.944Z,50.90
2018-07-03T06:31:56.543Z,50.20
2018-07-03T06:34:24.285Z,49.90
2018-07-03T06:36:53.128Z,48.10
2018-07-03T06:39:21.477Z,47.40
2018-07-03T06:41:49.956Z,46.30
2018-07-03T06:44:23.618Z,45.50
2018-07-03T06:46:51.623Z,44.10
2018-07-03T06:49:19.321Z,44.00
2018-07-03T06:51:46.912Z,42.60
2018-07-03T06:54:14.501Z,39.80
2018-07-03T06:56:42.102Z,33.50
2018-07-03T06:59:09.992Z,28.20
2018-07-03T07:01:37.702Z,24.30
2018-07-03T07:04:05.350Z,22.50
2018-07-03T07:06:32.913Z,20.90
2018-07-03T07:09:00.503Z,20.50
2018-07-03T07:11:28.159Z,20.10
2018-07-03T07:13:55.995Z,19.60
2018-07-03T07:18:52.536Z,18.90
2018-07-03T07:21:20.193Z,18.10
2018-07-03T07:23:47.737Z,17.90
2018-07-03T07:26:15.284Z,17.20
2018-07-03T07:28:42.881Z,16.90
2018-07-03T07:31:10.638Z,16.60
2018-07-03T07:33:38.198Z,17.00
2018-07-03T07:36:05.843Z,16.50
2018-07-03T07:38:33.490Z,16.50
2018-07-03T07:41:01.115Z,15.90
2018-07-03T07:43:28.740Z,15.80
2018-07-03T07:45:56.446Z,15.80
2018-07-03T07:48:24.219Z,15.50
2018-07-03T07:50:51.784Z,15.50
2018-07-03T07:53:19.395Z,15.30
2018-07-03T07:55:46.964Z,15.50
2018-07-03T07:58:14.497Z,15.50
2018-07-03T08:00:42.049Z,15.20
2018-07-03T08:03:09.615Z,14.70
2018-07-03T08:05:37.204Z,14.80
2018-07-03T08:08:12.311Z,15.00
2018-07-03T08:10:43.078Z,14.70
2018-07-03T08:13:10.718Z,14.50
2018-07-03T08:15:39.732Z,14.30
2018-07-03T08:18:07.325Z,13.80
2018-07-03T08:20:35.032Z,14.30
2018-07-03T08:23:02.773Z,14.30
2018-07-03T08:25:30.375Z,13.70
2018-07-03T08:27:58.751Z,13.60
2018-07-03T08:30:26.469Z,14.00
2018-07-03T08:32:54.160Z,13.80
2018-07-03T08:35:21.775Z,13.60
2018-07-03T08:37:49.576Z,13.50
2018-07-03T08:40:17.235Z,13.30
2018-07-03T08:42:44.876Z,13.30
2018-07-03T08:45:12.600Z,13.30
2018-07-03T08:47:41.404Z,13.50
2018-07-03T08:50:09.172Z,13.30
2018-07-03T08:52:36.808Z,14.10
2018-07-03T08:55:04.421Z,13.30
2018-07-03T08:57:32.091Z,13.20
2018-07-03T08:59:59.751Z,13.10
2018-07-03T09:02:27.589Z,12.90
2018-07-03T09:04:55.175Z,13.40
2018-07-03T09:07:26.248Z,13.40
2018-07-03T09:09:54.106Z,13.80
2018-07-03T09:12:25.116Z,13.30
2018-07-03T09:14:54.033Z,13.80
2018-07-03T09:17:33.661Z,13.70
2018-07-03T09:20:01.681Z,14.20
2018-07-03T09:22:30.824Z,14.80
2018-07-03T09:24:58.699Z,14.70
2018-07-03T09:27:26.480Z,14.70
2018-07-03T09:29:54.048Z,15.30
2018-07-03T09:32:24.150Z,15.20
2018-07-03T09:34:51.772Z,15.10
2018-07-03T09:37:19.441Z,14.70
2018-07-03T09:39:47.164Z,14.80
2018-07-03T09:42:14.823Z,14.70
2018-07-03T09:44:42.488Z,14.30
2018-07-03T09:47:10.080Z,14.50
2018-07-03T09:49:37.707Z,14.10
2018-07-03T09:52:05.324Z,13.90
2018-07-03T09:54:32.902Z,13.60
2018-07-03T09:57:00.618Z,13.40
2018-07-03T09:59:28.379Z,13.00
2018-07-03T10:01:56.083Z,13.40
2018-07-03T10:04:24.660Z,13.50
2018-07-03T10:06:52.392Z,13.30
2018-07-03T10:11:47.705Z,13.30
2018-07-03T10:14:15.255Z,13.20
2018-07-03T10:16:42.846Z,13.50
2018-07-03T10:19:10.556Z,13.60
2018-07-03T10:21:38.115Z,13.50
2018-07-03T10:24:05.719Z,13.40
2018-07-03T10:26:33.355Z,13.30
2018-07-03T10:29:00.920Z,13.30
2018-07-03T10:31:28.833Z,13.50
2018-07-03T10:33:56.581Z,13.70
2018-07-03T10:36:24.173Z,13.30
2018-07-03T10:38:51.863Z,13.50
2018-07-03T10:41:19.450Z,13.10
2018-07-03T10:43:47.079Z,13.70
2018-07-03T10:46:14.699Z,13.10
2018-07-03T10:48:42.331Z,13.40
2018-07-03T10:51:09.987Z,13.70
2018-07-03T10:53:37.593Z,13.40
2018-07-03T10:56:05.462Z,13.90
2018-07-03T10:58:33.147Z,14.20
2018-07-03T11:01:01.368Z,15.40
2018-07-03T11:03:29.231Z,16.70
2018-07-03T11:05:56.860Z,18.20
2018-07-03T11:08:24.586Z,18.40
2018-07-03T11:10:52.229Z,19.60
2018-07-03T11:13:19.815Z,20.10
2018-07-03T11:15:47.504Z,20.30
2018-07-03T11:18:15.104Z,20.90
2018-07-03T11:20:42.668Z,20.50
2018-07-03T11:23:10.228Z,21.70
2018-07-03T11:25:37.795Z,21.90
2018-07-03T11:28:05.727Z,21.90
2018-07-03T11:30:33.444Z,21.70
2018-07-03T11:33:01.233Z,22.10
2018-07-03T11:35:29.156Z,21.50
2018-07-03T11:37:56.783Z,22.10
2018-07-03T11:40:24.483Z,22.50
2018-07-03T11:42:52.126Z,22.80
2018-07-03T11:45:20.924Z,23.00
2018-07-03T11:47:48.582Z,22.40
2018-07-03T11:50:16.236Z,22.00
2018-07-03T11:52:43.825Z,23.20
2018-07-03T11:55:11.432Z,22.60
2018-07-03T11:57:39.092Z,22.70
2018-07-03T12:02:36.404Z,22.90
2018-07-03T12:05:04.300Z,24.00
2018-07-03T12:07:31.841Z,23.00
2018-07-03T12:09:59.762Z,24.10
2018-07-03T12:14:55.968Z,24.10
2018-07-03T12:17:23.592Z,24.10
2018-07-03T12:20:03.281Z,24.00
2018-07-03T12:22:30.978Z,24.90
2018-07-03T12:24:58.629Z,23.70
2018-07-03T12:27:28.617Z,24.40
2018-07-03T12:29:56.195Z,24.00
2018-07-03T12:32:23.766Z,24.00
2018-07-03T12:34:51.455Z,23.60
2018-07-03T12:37:19.033Z,23.90
2018-07-03T12:39:46.672Z,24.60
2018-07-03T12:42:14.697Z,23.20
2018-07-03T12:44:42.412Z,23.60
2018-07-03T12:47:10.028Z,24.40
2018-07-03T12:49:37.603Z,23.90
2018-07-03T12:52:05.563Z,24.80
2018-07-03T12:54:33.219Z,23.80
2018-07-03T12:57:01.053Z,23.50
2018-07-03T12:59:28.631Z,24.40
2018-07-03T13:01:56.278Z,24.70
2018-07-03T13:04:24.031Z,24.50
2018-07-03T13:06:52.080Z,25.10
2018-07-03T13:09:19.830Z,24.20
2018-07-03T13:11:47.512Z,23.50
2018-07-03T13:14:15.239Z,23.90
2018-07-03T13:16:42.857Z,23.80
2018-07-03T13:19:10.412Z,23.60
2018-07-03T13:21:37.952Z,23.60
2018-07-03T13:24:05.814Z,24.10
2018-07-03T13:26:33.364Z,23.70
2018-07-03T13:29:00.988Z,24.20
2018-07-03T13:31:28.793Z,24.20
2018-07-03T13:33:57.184Z,23.60
2018-07-03T13:36:25.080Z,23.50
2018-07-03T13:38:52.896Z,23.60
2018-07-03T13:41:20.688Z,24.50
2018-07-03T13:43:48.352Z,24.80
2018-07-03T13:46:15.911Z,24.60
2018-07-03T13:48:43.435Z,24.70
2018-07-03T13:51:11.007Z,24.30
2018-07-03T13:53:38.708Z,24.30
2018-07-03T13:56:06.339Z,24.40
2018-07-03T13:58:34.199Z,24.20
2018-07-03T14:01:02.502Z,24.20
2018-07-03T14:03:30.132Z,25.30
2018-07-03T14:05:57.705Z,24.60
2018-07-03T14:08:26.628Z,25.60
2018-07-03T14:10:54.265Z,25.90
2018-07-03T14:13:21.919Z,25.40
2018-07-03T14:15:49.543Z,25.00
2018-07-03T14:18:21.764Z,24.70
2018-07-03T14:20:49.340Z,25.50
2018-07-03T14:23:16.927Z,25.90
2018-07-03T14:25:44.570Z,25.40
2018-07-03T14:28:12.274Z,25.70
2018-07-03T14:30:39.889Z,26.20
2018-07-03T14:33:07.510Z,25.90
2018-07-03T14:35:35.184Z,26.90
2018-07-03T14:38:02.789Z,26.40
2018-07-03T14:40:30.406Z,26.30
2018-07-03T14:42:58.003Z,26.40
2018-07-03T14:47:54.647Z,27.40
2018-07-03T14:50:22.287Z,26.40
2018-07-03T14:52:49.872Z,25.90
2018-07-03T14:55:17.710Z,26.60
2018-07-03T14:57:45.419Z,26.30
2018-07-03T15:02:40.536Z,25.80
2018-07-03T15:05:08.391Z,25.90
2018-07-03T15:07:35.965Z,26.10
2018-07-03T15:10:03.557Z,25.50
2018-07-03T15:12:31.692Z,25.90
2018-07-03T15:14:59.356Z,25.90
2018-07-03T15:17:29.800Z,25.80
2018-07-03T15:19:58.607Z,25.80
2018-07-03T15:22:26.978Z,26.20
2018-07-03T15:24:57.851Z,26.00
2018-07-03T15:27:25.579Z,26.10
2018-07-03T15:29:53.718Z,25.90
2018-07-03T15:32:21.750Z,26.50
2018-07-03T15:34:49.377Z,26.50
2018-07-03T15:37:17.007Z,25.80
2018-07-03T15:39:44.681Z,26.10
2018-07-03T15:42:12.345Z,25.90
2018-07-03T15:44:51.710Z,26.40
2018-07-03T15:47:19.629Z,26.50
2018-07-03T15:49:47.317Z,26.50
2018-07-03T15:52:15.015Z,26.50
2018-07-03T15:54:42.629Z,26.50
2018-07-03T15:57:10.316Z,25.70
2018-07-03T15:59:38.563Z,25.40
2018-07-03T16:02:13.025Z,25.30
2018-07-03T16:05:19.484Z,25.50
2018-07-03T16:07:56.206Z,25.90
2018-07-03T16:10:24.277Z,25.90
2018-07-03T16:12:51.875Z,26.40
2018-07-03T16:15:19.809Z,26.30
2018-07-03T16:17:47.456Z,26.70
2018-07-03T16:22:48.785Z,26.90
2018-07-03T16:25:16.465Z,26.90
2018-07-03T16:27:44.018Z,26.60
2018-07-03T16:30:11.560Z,26.70
2018-07-03T16:32:39.124Z,26.70
2018-07-03T16:35:07.066Z,26.60
2018-07-03T16:37:35.041Z,26.70
2018-07-03T16:40:02.727Z,27.20
2018-07-03T16:42:32.672Z,26.90
2018-07-03T16:45:00.361Z,26.50
2018-07-03T16:47:30.970Z,26.20
2018-07-03T16:49:58.671Z,26.50
2018-07-03T16:52:26.448Z,27.30
2018-07-03T16:54:54.283Z,27.40
2018-07-03T16:57:22.001Z,27.20
2018-07-03T16:59:49.565Z,26.50
2018-07-03T17:02:17.138Z,27.00
2018-07-03T17:04:44.837Z,27.00
2018-07-03T17:07:12.463Z,27.20
2018-07-03T17:09:40.052Z,27.70
2018-07-03T17:12:07.739Z,26.70
2018-07-03T17:14:35.360Z,27.40
2018-07-03T17:17:03.093Z,27.50
2018-07-03T17:19:39.990Z,26.50
2018-07-03T17:22:07.789Z,26.50
2018-07-03T17:24:35.626Z,27.10
2018-07-03T17:27:03.546Z,27.10
2018-07-03T17:29:32.142Z,27.20
2018-07-03T17:31:59.895Z,27.70
2018-07-03T17:34:27.553Z,27.60
2018-07-03T17:36:55.117Z,27.50
2018-07-03T17:39:33.124Z,27.20
2018-07-03T17:42:12.228Z,26.60
2018-07-03T17:45:54.534Z,26.50
2018-07-03T17:48:22.144Z,27.00
2018-07-03T17:50:49.777Z,28.20
2018-07-03T17:53:17.660Z,28.10
2018-07-03T17:55:45.341Z,28.10
2018-07-03T17:58:13.093Z,27.80
2018-07-03T18:00:41.149Z,27.60
2018-07-03T18:03:10.914Z,28.30
2018-07-03T18:05:38.807Z,29.20
2018-07-03T18:08:06.505Z,29.00
2018-07-03T18:10:34.127Z,29.20
2018-07-03T18:13:01.853Z,29.20
2018-07-03T18:15:29.475Z,29.60
2018-07-03T18:17:57.116Z,28.90
2018-07-03T18:20:24.784Z,29.30
2018-07-03T18:22:52.364Z,29.80
2018-07-03T18:25:20.261Z,30.50
2018-07-03T18:27:47.895Z,30.80
2018-07-03T18:30:15.558Z,31.20
2018-07-03T18:32:43.360Z,30.90
2018-07-03T18:35:11.185Z,30.90
2018-07-03T18:37:38.860Z,31.40
2018-07-03T18:40:06.741Z,32.00
2018-07-03T18:42:34.596Z,32.20
2018-07-03T18:45:02.716Z,32.30
2018-07-03T18:47:33.100Z,32.00
2018-07-03T18:50:00.709Z,32.00
2018-07-03T19:01:42.092Z,33.40
2018-07-03T19:06:38.081Z,34.90
2018-07-03T19:09:07.067Z,34.40
2018-07-03T19:11:35.158Z,33.90
2018-07-03T19:14:03.047Z,34.50
2018-07-03T19:16:31.022Z,35.00
2018-07-03T19:18:59.219Z,35.50
2018-07-03T19:21:27.007Z,35.30
2018-07-03T19:23:54.636Z,36.10
2018-07-03T19:26:22.365Z,36.20
2018-07-03T19:28:49.972Z,36.30
2018-07-03T19:31:17.648Z,36.30
2018-07-03T19:33:45.333Z,37.30
2018-07-03T19:36:13.010Z,36.40
2018-07-03T19:38:40.657Z,37.20
2018-07-03T19:41:08.274Z,38.20
2018-07-03T19:43:36.999Z,37.70
2018-07-03T19:46:05.205Z,38.20
2018-07-03T19:48:32.935Z,38.50
2018-07-03T19:51:00.650Z,38.40
2018-07-03T19:53:28.363Z,38.80
2018-07-03T19:55:57.273Z,39.60
2018-07-03T19:58:24.961Z,39.30
2018-07-03T20:00:53.835Z,39.40
2018-07-03T20:03:21.445Z,39.50
2018-07-03T20:05:49.298Z,40.40
2018-07-03T20:08:17.066Z,40.60
2018-07-03T20:10:44.757Z,40.10
2018-07-03T20:13:14.641Z,41.00
2018-07-03T20:15:42.485Z,40.60
2018-07-03T20:18:11.227Z,41.00
2018-07-03T20:20:38.971Z,41.40
2018-07-03T20:23:06.679Z,41.70
2018-07-03T20:25:35.472Z,42.50
2018-07-03T20:28:03.869Z,42.40
2018-07-03T20:30:31.604Z,42.80
2018-07-03T20:32:59.809Z,42.80
2018-07-03T20:35:27.619Z,42.80
2018-07-03T20:37:58.241Z,42.80
2018-07-03T20:40:26.464Z,42.20
2018-07-03T20:42:55.722Z,42.60
2018-07-03T20:45:23.291Z,42.80
2018-07-03T20:47:50.920Z,43.10
2018-07-03T20:50:18.973Z,43.80
2018-07-03T20:52:46.764Z,43.70
2018-07-03T20:55:15.489Z,44.50
2018-07-03T20:57:43.540Z,44.00
2018-07-03T21:00:11.219Z,44.70
2018-07-03T21:02:38.861Z,45.00
2018-07-03T21:05:06.821Z,44.60
2018-07-03T21:07:36.044Z,44.50
2018-07-03T21:10:04.158Z,44.70
2018-07-03T21:12:35.863Z,45.10
2018-07-03T21:15:03.812Z,45.20
2018-07-03T21:17:34.352Z,44.90
2018-07-03T21:20:03.292Z,45.60
2018-07-03T21:22:31.298Z,45.50
2018-07-03T21:24:58.922Z,45.80
2018-07-03T21:27:26.885Z,45.80
2018-07-03T21:29:54.746Z,45.90
2018-07-03T21:32:22.472Z,46.20
2018-07-03T21:34:50.197Z,45.90
2018-07-03T21:37:18.068Z,46.20
2018-07-03T21:39:45.846Z,46.30
2018-07-03T21:42:14.024Z,46.40
2018-07-03T21:44:41.784Z,46.30
2018-07-03T21:49:39.228Z,46.70
2018-07-03T21:52:07.753Z,46.80
2018-07-03T21:54:35.627Z,46.70
2018-07-03T21:57:03.396Z,47.40
2018-07-03T21:59:31.175Z,48.00
2018-07-03T22:01:59.004Z,47.80
2018-07-03T22:04:26.936Z,47.60
2018-07-03T22:06:55.229Z,48.00
2018-07-03T22:09:24.037Z,48.00
2018-07-03T22:11:51.989Z,48.00
2018-07-03T22:14:20.814Z,48.00
2018-07-03T22:16:48.978Z,47.80
2018-07-03T22:19:16.781Z,48.00
2018-07-03T22:21:44.640Z,48.20
2018-07-03T22:24:14.220Z,48.70
2018-07-03T22:29:12.041Z,48.10
2018-07-03T22:31:39.842Z,47.60
2018-07-03T22:34:10.073Z,46.60
2018-07-03T22:36:38.258Z,48.20
2018-07-03T22:39:07.208Z,47.50
2018-07-03T22:41:34.758Z,47.40
2018-07-03T22:46:35.640Z,46.20
2018-07-03T22:49:03.324Z,46.90
2018-07-03T22:51:31.040Z,46.20
2018-07-03T22:53:58.881Z,46.50
2018-07-03T22:56:26.629Z,46.80
2018-07-03T22:58:54.501Z,46.60
2018-07-03T23:01:22.291Z,46.30
2018-07-03T23:03:49.988Z,46.90
2018-07-03T23:06:17.644Z,47.00
2018-07-03T23:08:45.259Z,46.70
2018-07-03T23:11:13.502Z,46.70
2018-07-03T23:13:41.567Z,46.90
2018-07-03T23:16:09.486Z,47.60
2018-07-03T23:18:37.194Z,47.30
2018-07-03T23:21:05.253Z,47.20
2018-07-03T23:23:33.458Z,48.10
2018-07-03T23:26:01.236Z,47.30
2018-07-03T23:28:28.880Z,47.40
2018-07-03T23:30:56.757Z,47.70
2018-07-03T23:33:24.429Z,48.60
2018-07-03T23:35:52.133Z,48.00
2018-07-03T23:38:20.253Z,47.70
2018-07-03T23:40:48.102Z,48.70
2018-07-03T23:43:15.831Z,48.70
2018-07-03T23:45:55.203Z,48.60
2018-07-03T23:48:34.759Z,49.30
2018-07-03T23:51:15.091Z,49.10
2018-07-03T23:53:54.292Z,49.30
2018-07-03T23:56:34.456Z,49.70
